Time;durP1;ratioP1;P1;durP2;ratioP2;P2;SDS_P1;SDS_P2;PMS_P1;PMS_P2;Temp;Humidity;BMP_temperature;BMP_pressure;BME280_temperature;BME280_humidity;BME280_pressure;Samples;Min_cycle;Max_cycle;Signal;HPM_P1;HPM_P2
2022/01/13 00:01:30;;;;;;;;;;;;;;;;;;4790975;29;19944;-79
2022/01/13 00:03:57;;;;;;;;;;;;;;;;;;4598590;30;19937;-81
2022/01/13 00:10:41;;;;;;;;;;;;;;;;;;5174540;27;19929;-81
2022/01/13 00:13:08;;;;;;;;;;;;;;;;;;5132445;27;19924;-83
2022/01/13 00:15:40;;;;;;;;;;;;;;;;;;5086397;28;19955;-78
2022/01/13 00:18:12;;;;;;;;;;;;;;;;;;5043409;28;19932;-81
2022/01/13 00:21:11;;;;;;;;;;;;;;;;;;4988587;28;19925;-80
2022/01/13 00:23:44;;;;;;;;;;;;;;;;;;4778623;29;19938;-81
2022/01/13 00:26:16;;;;;;;;;;;;;;;;;;4526692;31;19944;-79
2022/01/13 00:32:54;;;;;;;;;;;;;;;;;;5166147;27;19927;-82
2022/01/13 00:35:21;;;;;;;;;;;;;;;;;;5117307;27;19930;-83
2022/01/13 00:37:48;;;;;;;;;;;;;;;;;;5105991;28;19932;-81
2022/01/13 00:40:15;;;;;;;;;;;;;;;;;;5054750;28;19933;-78
2022/01/13 00:42:42;;;;;;;;;;;;;;;;;;4944247;28;19952;-77
2022/01/13 00:45:13;;;;;;;;;;;;;;;;;;4793763;29;19931;-77
2022/01/13 00:47:40;;;;;;;;;;;;;;;;;;4585918;30;19935;-78
2022/01/13 00:55:20;;;;;;;;;;;;;;;;;;5217789;27;19925;-83
2022/01/13 00:57:47;;;;;;;;;;;;;;;;;;5176721;27;19923;-79
2022/01/13 01:00:13;;;;;;;;;;;;;;;;;;5159912;27;19923;-80
2022/01/13 01:02:40;;;;;;;;;;;;;;;;;;5126448;27;19924;-79
2022/01/13 01:05:07;;;;;;;;;;;;;;;;;;5038216;28;19935;-79
2022/01/13 01:07:35;;;;;;;;;;;;;;;;;;4861672;29;19929;-80
2022/01/13 01:10:03;;;;;;;;;;;;;;;;;;4669935;29;19934;-81
2022/01/13 01:17:43;;;;;;;;;;;;;;;;;;5175579;27;19926;-80
2022/01/13 01:20:10;;;;;;;;;;;;;;;;;;5132786;27;19924;-79
2022/01/13 01:22:55;;;;;;;;;;;;;;;;;;5137210;27;19923;-79
2022/01/13 01:25:41;;;;;;;;;;;;;;;;;;5016855;28;19925;-80
2022/01/13 01:28:15;;;;;;;;;;;;;;;;;;4938739;28;19934;-79
2022/01/13 01:30:44;;;;;;;;;;;;;;;;;;4797599;29;19930;-80
2022/01/13 01:33:15;;;;;;;;;;;;;;;;;;4595844;30;19936;-80
2022/01/13 01:40:48;;;;;;;;;;;;;;;;;;5173451;27;19926;-82
2022/01/13 01:43:14;;;;;;;;;;;;;;;;;;5131763;27;19923;-83
2022/01/13 01:45:44;;;;;;;;;;;;;;;;;;5093663;28;19929;-82
2022/01/13 01:48:11;;;;;;;;;;;;;;;;;;5051428;28;19937;-80
2022/01/13 01:50:38;;;;;;;;;;;;;;;;;;4939465;28;19928;-83
2022/01/13 01:53:05;;;;;;;;;;;;;;;;;;4864100;29;19929;-79
2022/01/13 01:55:32;;;;;;;;;;;;;;;;;;4562445;30;19944;-81
2022/01/13 02:03:06;;;;;;;;;;;;;;;;;;5166478;27;19925;-83
2022/01/13 02:05:33;;;;;;;;;;;;;;;;;;5125818;27;19923;-79
2022/01/13 02:08:00;;;;;;;;;;;;;;;;;;5123636;28;19931;-77
2022/01/13 02:10:27;;;;;;;;;;;;;;;;;;5041150;28;19926;-80
2022/01/13 02:13:02;;;;;;;;;;;;;;;;;;4956354;28;20006;-79
2022/01/13 02:15:32;;;;;;;;;;;;;;;;;;4726377;29;19943;-80
2022/01/13 02:17:59;;;;;;;;;;;;;;;;;;4545518;30;19943;-81
2022/01/13 02:25:34;;;;;;;;;;;;;;;;;;5174079;27;19942;-79
2022/01/13 02:28:01;;;;;;;;;;;;;;;;;;5121282;27;19923;-81
2022/01/13 02:30:28;;;;;;;;;;;;;;;;;;5109584;28;19932;-79
2022/01/13 02:32:55;;;;;;;;;;;;;;;;;;5054011;28;19925;-80
2022/01/13 02:35:21;;;;;;;;;;;;;;;;;;4979696;28;20009;-80
2022/01/13 02:37:48;;;;;;;;;;;;;;;;;;4860064;29;19930;-82
2022/01/13 02:40:15;;;;;;;;;;;;;;;;;;4656956;30;19934;-82
2022/01/13 02:48:12;;;;;;;;;;;;;;;;;;5175173;27;19930;-82
2022/01/13 02:50:40;;;;;;;;;;;;;;;;;;5119039;27;19923;-80
2022/01/13 02:53:07;;;;;;;;;;;;;;;;;;5090860;28;19925;-80
2022/01/13 02:55:34;;;;;;;;;;;;;;;;;;5036214;28;19925;-80
2022/01/13 02:58:01;;;;;;;;;;;;;;;;;;4951459;28;19928;-80
2022/01/13 03:00:28;;;;;;;;;;;;;;;;;;4810066;29;19946;-83
2022/01/13 03:02:55;;;;;;;;;;;;;;;;;;4559688;30;19942;-84
2022/01/13 03:10:26;;;;;;;;;;;;;;;;;;5174611;27;19926;-82
2022/01/13 03:12:55;;;;;;;;;;;;;;;;;;5117961;28;19924;-82
2022/01/13 03:15:22;;;;;;;;;;;;;;;;;;5088560;28;19924;-81
2022/01/13 03:17:49;;;;;;;;;;;;;;;;;;5053760;28;19932;-78
2022/01/13 03:20:16;;;;;;;;;;;;;;;;;;5011203;28;19925;-82
2022/01/13 03:22:43;;;;;;;;;;;;;;;;;;4877313;28;19931;-80
2022/01/13 03:25:10;;;;;;;;;;;;;;;;;;4639668;30;19941;-83
2022/01/13 03:32:41;;;;;;;;;;;;;;;;;;5175435;27;19926;-79
2022/01/13 03:35:08;;;;;;;;;;;;;;;;;;5127119;27;19923;-79
2022/01/13 03:37:35;;;;;;;;;;;;;;;;;;5123428;28;20417;-78
2022/01/13 03:40:02;;;;;;;;;;;;;;;;;;5085592;28;19924;-82
2022/01/13 03:42:29;;;;;;;;;;;;;;;;;;4969192;28;19950;-80
2022/01/13 03:44:56;;;;;;;;;;;;;;;;;;4821208;29;19931;-77
2022/01/13 03:47:22;;;;;;;;;;;;;;;;;;4601085;30;19934;-77
2022/01/13 03:54:55;;;;;;;;;;;;;;;;;;5180627;27;19925;-80
2022/01/13 03:57:21;;;;;;;;;;;;;;;;;;5138542;27;19923;-82
2022/01/13 03:59:49;;;;;;;;;;;;;;;;;;5115679;28;19923;-83
2022/01/13 04:02:15;;;;;;;;;;;;;;;;;;5096183;28;19925;-81
2022/01/13 04:04:42;;;;;;;;;;;;;;;;;;5005639;28;19927;-81
2022/01/13 04:07:09;;;;;;;;;;;;;;;;;;4863688;29;19928;-82
2022/01/13 04:09:36;;;;;;;;;;;;;;;;;;4695517;29;19933;-77
2022/01/13 04:17:08;;;;;;;;;;;;;;;;;;5174220;27;19925;-82
2022/01/13 04:19:35;;;;;;;;;;;;;;;;;;5137504;27;19923;-80
2022/01/13 04:22:02;;;;;;;;;;;;;;;;;;5112680;28;21121;-82
2022/01/13 04:24:28;;;;;;;;;;;;;;;;;;5066154;28;19925;-82
2022/01/13 04:26:56;;;;;;;;;;;;;;;;;;4944947;28;19928;-84
2022/01/13 04:29:31;;;;;;;;;;;;;;;;;;4806239;29;19936;-82
2022/01/13 04:31:58;;;;;;;;;;;;;;;;;;4583438;30;19947;-80
2022/01/13 04:37:04;;;;;;;;;;;;;;;;;;5174204;27;19926;-81
2022/01/13 04:39:31;;;;;;;;;;;;;;;;;;5125593;27;19930;-79
2022/01/13 04:41:58;;;;;;;;;;;;;;;;;;5113233;28;19932;-80
2022/01/13 04:44:25;;;;;;;;;;;;;;;;;;5073610;28;19928;-82
2022/01/13 04:46:52;;;;;;;;;;;;;;;;;;4957333;28;19928;-79
2022/01/13 04:49:19;;;;;;;;;;;;;;;;;;4785818;29;19932;-80
2022/01/13 04:51:46;;;;;;;;;;;;;;;;;;4556794;30;19942;-82
2022/01/13 04:59:14;;;;;;;;;;;;;;;;;;5177256;27;19926;-79
2022/01/13 05:01:41;;;;;;;;;;;;;;;;;;5136828;27;19930;-82
2022/01/13 05:04:08;;;;;;;;;;;;;;;;;;5103480;28;19924;-81
2022/01/13 05:06:34;;;;;;;;;;;;;;;;;;5068342;28;19931;-79
2022/01/13 05:09:01;;;;;;;;;;;;;;;;;;4985232;28;19951;-84
2022/01/13 05:11:28;;;;;;;;;;;;;;;;;;4812435;29;19930;-84
2022/01/13 05:13:55;;;;;;;;;;;;;;;;;;4584384;30;19943;-82
2022/01/13 05:21:02;;;;;;;;;;;;;;;;;;5168571;27;19925;-79
2022/01/13 05:23:29;;;;;;;;;;;;;;;;;;5088225;28;19925;-78
2022/01/13 05:25:56;;;;;;;;;;;;;;;;;;5059974;28;19924;-83
2022/01/13 05:28:22;;;;;;;;;;;;;;;;;;5027533;28;19948;-82
2022/01/13 05:30:49;;;;;;;;;;;;;;;;;;4962591;28;19955;-83
2022/01/13 05:33:16;;;;;;;;;;;;;;;;;;4784806;29;19930;-80
2022/01/13 05:35:43;;;;;;;;;;;;;;;;;;4614998;30;19935;-81
2022/01/13 05:43:10;;;;;;;;;;;;;;;;;;5171538;27;19925;-79
2022/01/13 05:45:37;;;;;;;;;;;;;;;;;;5114380;28;19930;-78
2022/01/13 05:48:04;;;;;;;;;;;;;;;;;;5096610;28;19924;-79
2022/01/13 05:50:31;;;;;;;;;;;;;;;;;;5042196;28;19925;-82
2022/01/13 05:52:58;;;;;;;;;;;;;;;;;;5010434;28;19926;-83
2022/01/13 05:55:25;;;;;;;;;;;;;;;;;;4842770;28;19932;-83
2022/01/13 05:57:51;;;;;;;;;;;;;;;;;;4607432;30;19934;-80
2022/01/13 06:05:25;;;;;;;;;;;;;;;;;;5187510;27;19925;-78
2022/01/13 06:07:53;;;;;;;;;;;;;;;;;;5135977;27;19931;-80
2022/01/13 06:10:20;;;;;;;;;;;;;;;;;;5123815;28;19924;-78
2022/01/13 06:12:47;;;;;;;;;;;;;;;;;;5078306;28;19929;-81
2022/01/13 06:15:13;;;;;;;;;;;;;;;;;;4959697;28;19931;-79
2022/01/13 06:17:40;;;;;;;;;;;;;;;;;;4882323;29;19928;-78
2022/01/13 06:20:07;;;;;;;;;;;;;;;;;;4657847;29;19935;-78
2022/01/13 06:27:39;;;;;;;;;;;;;;;;;;5171313;27;19926;-82
2022/01/13 06:30:06;;;;;;;;;;;;;;;;;;5097188;28;19924;-80
2022/01/13 06:32:33;;;;;;;;;;;;;;;;;;5075872;28;19959;-80
2022/01/13 06:35:00;;;;;;;;;;;;;;;;;;5015738;28;19933;-81
2022/01/13 06:37:27;;;;;;;;;;;;;;;;;;4955950;28;19928;-83
2022/01/13 06:39:53;;;;;;;;;;;;;;;;;;4848696;29;19935;-83
2022/01/13 06:42:20;;;;;;;;;;;;;;;;;;4725261;29;19939;-84
2022/01/13 06:49:52;;;;;;;;;;;;;;;;;;5203797;27;19925;-83
2022/01/13 06:52:19;;;;;;;;;;;;;;;;;;5145567;27;19924;-84
2022/01/13 06:54:45;;;;;;;;;;;;;;;;;;5133147;27;19928;-82
2022/01/13 06:57:12;;;;;;;;;;;;;;;;;;5086039;28;19925;-82
2022/01/13 06:59:39;;;;;;;;;;;;;;;;;;5008873;28;19950;-80
2022/01/13 07:02:06;;;;;;;;;;;;;;;;;;4854747;29;19936;-83
2022/01/13 07:04:34;;;;;;;;;;;;;;;;;;4702183;29;19934;-80
2022/01/13 07:12:08;;;;;;;;;;;;;;;;;;5169627;27;19927;-82
2022/01/13 07:14:35;;;;;;;;;;;;;;;;;;5114637;27;19935;-80
2022/01/13 07:17:02;;;;;;;;;;;;;;;;;;5112539;28;19935;-82
2022/01/13 07:19:29;;;;;;;;;;;;;;;;;;5071144;28;19925;-83
2022/01/13 07:21:55;;;;;;;;;;;;;;;;;;4946053;28;19939;-83
2022/01/13 07:24:22;;;;;;;;;;;;;;;;;;4807901;29;19930;-83
2022/01/13 07:26:49;;;;;;;;;;;;;;;;;;4619882;30;19942;-83
2022/01/13 07:34:17;;;;;;;;;;;;;;;;;;5173892;27;19926;-81
2022/01/13 07:36:44;;;;;;;;;;;;;;;;;;5118477;28;19924;-82
2022/01/13 07:39:11;;;;;;;;;;;;;;;;;;5090459;28;19931;-78
2022/01/13 07:41:38;;;;;;;;;;;;;;;;;;5095311;28;19931;-80
2022/01/13 07:44:05;;;;;;;;;;;;;;;;;;5003681;28;19928;-78
2022/01/13 07:46:32;;;;;;;;;;;;;;;;;;4833464;29;19936;-80
2022/01/13 07:48:59;;;;;;;;;;;;;;;;;;4652459;30;20016;-79
2022/01/13 07:56:28;;;;;;;;;;;;;;;;;;5182537;27;19925;-80
2022/01/13 07:58:55;;;;;;;;;;;;;;;;;;5122154;27;19930;-83
2022/01/13 08:01:21;;;;;;;;;;;;;;;;;;5088209;28;19924;-82
2022/01/13 08:03:48;;;;;;;;;;;;;;;;;;5057795;28;19999;-81
2022/01/13 08:06:15;;;;;;;;;;;;;;;;;;4987536;28;19928;-83
2022/01/13 08:08:42;;;;;;;;;;;;;;;;;;4777505;29;19932;-82
2022/01/13 08:11:09;;;;;;;;;;;;;;;;;;4586370;30;19936;-80
2022/01/13 08:21:27;;;;;;;;;;;;;;;;;;5121614;28;19922;-79
2022/01/13 08:23:54;;;;;;;;;;;;;;;;;;5077621;28;19924;-81
2022/01/13 08:26:21;;;;;;;;;;;;;;;;;;5057042;28;19933;-84
2022/01/13 08:28:48;;;;;;;;;;;;;;;;;;4969338;28;19928;-80
2022/01/13 08:31:15;;;;;;;;;;;;;;;;;;4830399;29;19930;-82
2022/01/13 08:33:42;;;;;;;;;;;;;;;;;;4557565;30;19944;-82
2022/01/13 08:41:15;;;;;;;;;;;;;;;;;;5174032;27;19942;-81
2022/01/13 08:43:42;;;;;;;;;;;;;;;;;;5132131;27;19934;-82
2022/01/13 08:46:08;;;;;;;;;;;;;;;;;;5096073;28;20442;-84
2022/01/13 08:48:35;;;;;;;;;;;;;;;;;;5083634;28;19924;-82
2022/01/13 08:51:02;;;;;;;;;;;;;;;;;;5023566;28;20004;-82
2022/01/13 08:53:29;;;;;;;;;;;;;;;;;;4771731;29;19932;-82
2022/01/13 08:55:58;;;;;;;;;;;;;;;;;;4596625;30;19947;-81
2022/01/13 09:01:14;;;;;;;;;;;;;;;;;;5173912;27;19926;-84
2022/01/13 09:03:41;;;;;;;;;;;;;;;;;;5138527;27;19923;-80
2022/01/13 09:06:08;;;;;;;;;;;;;;;;;;5126946;28;19939;-82
2022/01/13 09:08:35;;;;;;;;;;;;;;;;;;5057992;28;19932;-80
2022/01/13 09:11:02;;;;;;;;;;;;;;;;;;4932930;28;19928;-82
2022/01/13 09:13:35;;;;;;;;;;;;;;;;;;4726339;29;19933;-82
2022/01/13 09:16:01;;;;;;;;;;;;;;;;;;4433719;31;19949;-81
2022/01/13 09:23:37;;;;;;;;;;;;;;;;;;5158275;27;19926;-82
2022/01/13 09:26:04;;;;;;;;;;;;;;;;;;5117146;27;19930;-83
2022/01/13 09:28:31;;;;;;;;;;;;;;;;;;5107037;28;19931;-83
2022/01/13 09:30:58;;;;;;;;;;;;;;;;;;5057544;28;19925;-81
2022/01/13 09:33:25;;;;;;;;;;;;;;;;;;4944385;28;19928;-83
2022/01/13 09:35:52;;;;;;;;;;;;;;;;;;4697262;29;19934;-80
2022/01/13 09:38:19;;;;;;;;;;;;;;;;;;4435028;31;19939;-82
2022/01/13 09:45:51;;;;;;;;;;;;;;;;;;5174966;27;19926;-85
2022/01/13 09:48:18;;;;;;;;;;;;;;;;;;5121588;28;19947;-80
2022/01/13 09:50:46;;;;;;;;;;;;;;;;;;5120920;28;19938;-82
2022/01/13 09:53:13;;;;;;;;;;;;;;;;;;5051056;28;19925;-82
2022/01/13 09:55:39;;;;;;;;;;;;;;;;;;4972055;28;19927;-82
2022/01/13 09:58:10;;;;;;;;;;;;;;;;;;4872793;29;19929;-80
2022/01/13 10:00:37;;;;;;;;;;;;;;;;;;4660610;30;19941;-80
2022/01/13 10:06:02;;;;;;;;;;;;;;;;;;5184917;27;19925;-79
2022/01/13 10:08:29;;;;;;;;;;;;;;;;;;5141934;27;19923;-82
2022/01/13 10:10:56;;;;;;;;;;;;;;;;;;5112670;27;19924;-82
2022/01/13 10:13:39;;;;;;;;;;;;;;;;;;5110629;28;19931;-81
2022/01/13 10:16:24;;;;;;;;;;;;;;;;;;5057397;28;19926;-84
2022/01/13 10:18:52;;;;;;;;;;;;;;;;;;4946555;28;19938;-81
2022/01/13 10:21:19;;;;;;;;;;;;;;;;;;4825399;29;19937;-78
2022/01/13 10:23:46;;;;;;;;;;;;;;;;;;4570551;30;19937;-81
2022/01/13 10:31:02;;;;;;;;;;;;;;;;;;5185237;27;19925;-79
2022/01/13 10:33:29;;;;;;;;;;;;;;;;;;5128652;27;19931;-84
2022/01/13 10:35:57;;;;;;;;;;;;;;;;;;5094836;28;19939;-80
2022/01/13 10:38:24;;;;;;;;;;;;;;;;;;5104563;28;19950;-79
2022/01/13 10:40:53;;;;;;;;;;;;;;;;;;5038391;28;19937;-81
2022/01/13 10:43:20;;;;;;;;;;;;;;;;;;4912701;28;19935;-79
2022/01/13 10:45:47;;;;;;;;;;;;;;;;;;4600730;30;19935;-83
2022/01/13 10:53:19;;;;;;;;;;;;;;;;;;5160654;27;19926;-82
2022/01/13 10:55:46;;;;;;;;;;;;;;;;;;5099888;28;19924;-83
2022/01/13 10:58:13;;;;;;;;;;;;;;;;;;5086866;28;19939;-82
2022/01/13 11:00:39;;;;;;;;;;;;;;;;;;5044229;28;19948;-81
2022/01/13 11:03:06;;;;;;;;;;;;;;;;;;4922670;28;19936;-83
2022/01/13 11:05:34;;;;;;;;;;;;;;;;;;4793448;29;19938;-83
2022/01/13 11:08:02;;;;;;;;;;;;;;;;;;4574501;30;19937;-82
2022/01/13 11:13:17;;;;;;;;;;;;;;;;;;5160818;27;19926;-84
2022/01/13 11:15:46;;;;;;;;;;;;;;;;;;5117582;27;19923;-83
2022/01/13 11:18:13;;;;;;;;;;;;;;;;;;5115029;28;19936;-81
2022/01/13 11:20:39;;;;;;;;;;;;;;;;;;5061079;28;19928;-81
2022/01/13 11:23:06;;;;;;;;;;;;;;;;;;4982253;28;19939;-84
2022/01/13 11:25:33;;;;;;;;;;;;;;;;;;4773864;29;19931;-85
2022/01/13 11:28:00;;;;;;;;;;;;;;;;;;4505954;30;19944;-83
2022/01/13 11:35:28;;;;;;;;;;;;;;;;;;5175364;27;19926;-81
2022/01/13 11:37:56;;;;;;;;;;;;;;;;;;5132654;27;19931;-81
2022/01/13 11:40:23;;;;;;;;;;;;;;;;;;5106989;27;19931;-83
2022/01/13 11:42:51;;;;;;;;;;;;;;;;;;5080802;28;20001;-82
2022/01/13 11:45:18;;;;;;;;;;;;;;;;;;4963382;28;19927;-84
2022/01/13 11:47:45;;;;;;;;;;;;;;;;;;4773183;29;19939;-81
2022/01/13 11:53:14;;;;;;;;;;;;;;;;;;4340477;32;19959;-78
2022/01/13 12:00:41;;;;;;;;;;;;;;;;;;5178277;27;19926;-81
2022/01/13 12:03:08;;;;;;;;;;;;;;;;;;5134592;27;19923;-80
2022/01/13 12:05:35;;;;;;;;;;;;;;;;;;5115391;28;19932;-78
2022/01/13 12:08:02;;;;;;;;;;;;;;;;;;5071375;28;19925;-80
2022/01/13 12:10:29;;;;;;;;;;;;;;;;;;5023115;28;19927;-81
2022/01/13 12:12:56;;;;;;;;;;;;;;;;;;4844020;29;19929;-80
2022/01/13 12:15:23;;;;;;;;;;;;;;;;;;4697681;30;19935;-81
2022/01/13 12:17:53;;;;;;;;;;;;;;;;;;4485583;31;19936;-81
2022/01/13 12:24:39;;;;;;;;;;;;;;;;;;5196963;27;19925;-80
2022/01/13 12:27:09;;;;;;;;;;;;;;;;;;5176729;27;19929;-82
2022/01/13 12:29:36;;;;;;;;;;;;;;;;;;5139125;27;19930;-79
2022/01/13 12:32:03;;;;;;;;;;;;;;;;;;5091171;28;20773;-80
2022/01/13 12:34:30;;;;;;;;;;;;;;;;;;5040099;28;19925;-82
2022/01/13 12:36:57;;;;;;;;;;;;;;;;;;4918289;28;19940;-81
2022/01/13 12:39:24;;;;;;;;;;;;;;;;;;4725937;29;19933;-81
2022/01/13 12:46:53;;;;;;;;;;;;;;;;;;5182468;27;19926;-80
2022/01/13 12:49:20;;;;;;;;;;;;;;;;;;5145982;27;19930;-78
2022/01/13 12:51:47;;;;;;;;;;;;;;;;;;5137753;27;19924;-77
2022/01/13 12:54:14;;;;;;;;;;;;;;;;;;5048029;28;19929;-82
2022/01/13 12:56:41;;;;;;;;;;;;;;;;;;4928325;28;19939;-79
2022/01/13 12:59:11;;;;;;;;;;;;;;;;;;4804629;29;19931;-79
2022/01/13 13:01:37;;;;;;;;;;;;;;;;;;4649123;30;19945;-79
2022/01/13 13:09:09;;;;;;;;;;;;;;;;;;5176465;27;19927;-81
2022/01/13 13:11:37;;;;;;;;;;;;;;;;;;5138279;27;19934;-81
2022/01/13 13:14:11;;;;;;;;;;;;;;;;;;5132580;27;19936;-77
2022/01/13 13:16:38;;;;;;;;;;;;;;;;;;5051677;28;19925;-80
2022/01/13 13:19:05;;;;;;;;;;;;;;;;;;4995242;28;19928;-80
2022/01/13 13:21:32;;;;;;;;;;;;;;;;;;4771911;29;19942;-81
2022/01/13 13:23:59;;;;;;;;;;;;;;;;;;4512139;30;19941;-83
2022/01/13 13:31:30;;;;;;;;;;;;;;;;;;5175074;27;19925;-80
2022/01/13 13:33:57;;;;;;;;;;;;;;;;;;5116835;27;19924;-81
2022/01/13 13:36:25;;;;;;;;;;;;;;;;;;5114160;28;19931;-80
2022/01/13 13:38:55;;;;;;;;;;;;;;;;;;5085458;28;19925;-83
2022/01/13 13:41:22;;;;;;;;;;;;;;;;;;4983589;28;19926;-83
2022/01/13 13:43:49;;;;;;;;;;;;;;;;;;4886816;29;19929;-83
2022/01/13 13:46:16;;;;;;;;;;;;;;;;;;4659621;29;19953;-83
2022/01/13 13:48:43;;;;;;;;;;;;;;;;;;4364898;31;19948;-86
2022/01/13 13:55:31;;;;;;;;;;;;;;;;;;5178777;27;19930;-84
2022/01/13 13:57:59;;;;;;;;;;;;;;;;;;5120062;28;19924;-81
2022/01/13 14:00:26;;;;;;;;;;;;;;;;;;5104850;28;19923;-83
2022/01/13 14:02:55;;;;;;;;;;;;;;;;;;5073310;28;19924;-84
2022/01/13 14:05:27;;;;;;;;;;;;;;;;;;4981535;28;19942;-81
2022/01/13 14:07:57;;;;;;;;;;;;;;;;;;4881308;28;19929;-82
2022/01/13 14:10:25;;;;;;;;;;;;;;;;;;4732568;29;19932;-78
2022/01/13 14:12:52;;;;;;;;;;;;;;;;;;4513869;31;19937;-79
2022/01/13 14:20:19;;;;;;;;;;;;;;;;;;5182970;27;19926;-81
2022/01/13 14:22:46;;;;;;;;;;;;;;;;;;5145451;27;19923;-83
2022/01/13 14:25:13;;;;;;;;;;;;;;;;;;5113506;28;19932;-86
2022/01/13 14:27:40;;;;;;;;;;;;;;;;;;5086885;28;19947;-84
2022/01/13 14:30:07;;;;;;;;;;;;;;;;;;4959562;28;19928;-82
2022/01/13 14:32:34;;;;;;;;;;;;;;;;;;4773496;29;19931;-80
2022/01/13 14:35:02;;;;;;;;;;;;;;;;;;4510395;30;19937;-82
2022/01/13 14:41:03;;;;;;;;;;;;;;;;;;5175734;27;19926;-79
2022/01/13 14:43:30;;;;;;;;;;;;;;;;;;5131564;27;19923;-81
2022/01/13 14:45:57;;;;;;;;;;;;;;;;;;5108414;27;19932;-81
2022/01/13 14:48:23;;;;;;;;;;;;;;;;;;5090329;28;19924;-84
2022/01/13 14:50:50;;;;;;;;;;;;;;;;;;4988094;28;19934;-83
2022/01/13 14:53:17;;;;;;;;;;;;;;;;;;4745674;29;19939;-82
2022/01/13 14:55:44;;;;;;;;;;;;;;;;;;4530697;30;19936;-81
2022/01/13 15:02:30;;;;;;;;;;;;;;;;;;5167480;27;19925;-81
2022/01/13 15:04:57;;;;;;;;;;;;;;;;;;5119291;27;19923;-82
2022/01/13 15:07:24;;;;;;;;;;;;;;;;;;5116177;28;19932;-81
2022/01/13 15:09:51;;;;;;;;;;;;;;;;;;5079340;28;19924;-79
2022/01/13 15:12:17;;;;;;;;;;;;;;;;;;4944538;28;19928;-79
2022/01/13 15:14:44;;;;;;;;;;;;;;;;;;4804710;29;19931;-79
2022/01/13 15:17:12;;;;;;;;;;;;;;;;;;4627262;30;19941;-81
2022/01/13 15:24:44;;;;;;;;;;;;;;;;;;5176824;27;19926;-81
2022/01/13 15:27:11;;;;;;;;;;;;;;;;;;5156200;27;19923;-80
2022/01/13 15:29:38;;;;;;;;;;;;;;;;;;5121098;27;19923;-81
2022/01/13 15:32:05;;;;;;;;;;;;;;;;;;5110350;28;19935;-82
2022/01/13 15:34:32;;;;;;;;;;;;;;;;;;5042095;28;19927;-82
2022/01/13 15:36:59;;;;;;;;;;;;;;;;;;4899891;28;19928;-83
2022/01/13 15:39:25;;;;;;;;;;;;;;;;;;4719000;29;19931;-80
2022/01/13 15:44:34;;;;;;;;;;;;;;;;;;5176117;27;19930;-82
2022/01/13 15:47:04;;;;;;;;;;;;;;;;;;5117681;28;19931;-81
2022/01/13 15:49:31;;;;;;;;;;;;;;;;;;5095793;28;19940;-82
2022/01/13 15:51:58;;;;;;;;;;;;;;;;;;5037316;28;19926;-80
2022/01/13 15:54:24;;;;;;;;;;;;;;;;;;4941104;28;19928;-82
2022/01/13 15:56:51;;;;;;;;;;;;;;;;;;4775413;29;19932;-81
2022/01/13 15:59:18;;;;;;;;;;;;;;;;;;4593957;30;19934;-83
2022/01/13 16:04:32;;;;;;;;;;;;;;;;;;5176039;27;19925;-81
2022/01/13 16:06:59;;;;;;;;;;;;;;;;;;5137710;27;19923;-81
2022/01/13 16:09:26;;;;;;;;;;;;;;;;;;5136239;27;19923;-82
2022/01/13 16:11:52;;;;;;;;;;;;;;;;;;5103710;28;19924;-83
2022/01/13 16:14:20;;;;;;;;;;;;;;;;;;5000573;28;19928;-80
2022/01/13 16:16:46;;;;;;;;;;;;;;;;;;4871477;29;19929;-79
2022/01/13 16:19:13;;;;;;;;;;;;;;;;;;4717417;29;19940;-80
2022/01/13 16:26:46;;;;;;;;;;;;;;;;;;5182675;27;19929;-80
2022/01/13 16:29:13;;;;;;;;;;;;;;;;;;5134259;27;19931;-82
2022/01/13 16:31:40;;;;;;;;;;;;;;;;;;5113955;28;19924;-82
2022/01/13 16:34:07;;;;;;;;;;;;;;;;;;5045889;28;19926;-81
2022/01/13 16:36:34;;;;;;;;;;;;;;;;;;4964739;28;19935;-80
2022/01/13 16:39:03;;;;;;;;;;;;;;;;;;4769462;29;19931;-81
2022/01/13 16:41:30;;;;;;;;;;;;;;;;;;4544930;30;19946;-80
2022/01/13 16:46:58;;;;;;;;;;;;;;;;;;5153718;27;19926;-84
2022/01/13 16:49:25;;;;;;;;;;;;;;;;;;5116625;27;19923;-80
2022/01/13 16:51:53;;;;;;;;;;;;;;;;;;5114090;27;19931;-81
2022/01/13 16:54:19;;;;;;;;;;;;;;;;;;5084666;28;19925;-82
2022/01/13 16:56:46;;;;;;;;;;;;;;;;;;5029952;28;19934;-85
2022/01/13 16:59:13;;;;;;;;;;;;;;;;;;4821656;29;19931;-85
2022/01/13 17:01:40;;;;;;;;;;;;;;;;;;4503593;30;19960;-86
2022/01/13 17:09:12;;;;;;;;;;;;;;;;;;5173875;27;19926;-84
2022/01/13 17:11:39;;;;;;;;;;;;;;;;;;5119572;27;19930;-83
2022/01/13 17:14:05;;;;;;;;;;;;;;;;;;5103415;28;19931;-85
2022/01/13 17:16:35;;;;;;;;;;;;;;;;;;5030747;28;19949;-86
2022/01/13 17:19:02;;;;;;;;;;;;;;;;;;4908429;28;19933;-83
2022/01/13 17:21:29;;;;;;;;;;;;;;;;;;4764004;29;19932;-80
2022/01/13 17:23:57;;;;;;;;;;;;;;;;;;4483318;30;19945;-84
2022/01/13 17:31:30;;;;;;;;;;;;;;;;;;5162963;27;19926;-83
2022/01/13 17:33:56;;;;;;;;;;;;;;;;;;5103438;28;19930;-83
2022/01/13 17:36:25;;;;;;;;;;;;;;;;;;5055885;28;19932;-83
2022/01/13 17:38:52;;;;;;;;;;;;;;;;;;5051548;28;19928;-83
2022/01/13 17:41:18;;;;;;;;;;;;;;;;;;4972913;28;19932;-84
2022/01/13 17:43:45;;;;;;;;;;;;;;;;;;4859243;29;19930;-82
2022/01/13 17:46:13;;;;;;;;;;;;;;;;;;4617432;30;19934;-81
2022/01/13 17:51:19;;;;;;;;;;;;;;;;;;5173666;27;19926;-81
2022/01/13 17:53:48;;;;;;;;;;;;;;;;;;5117644;27;19923;-83
2022/01/13 17:56:15;;;;;;;;;;;;;;;;;;5097376;28;19923;-81
2022/01/13 17:58:42;;;;;;;;;;;;;;;;;;5077888;28;19925;-81
2022/01/13 18:01:09;;;;;;;;;;;;;;;;;;4955825;28;19928;-82
2022/01/13 18:03:36;;;;;;;;;;;;;;;;;;4836695;29;19929;-84
2022/01/13 18:06:03;;;;;;;;;;;;;;;;;;4727803;29;19955;-83
2022/01/13 18:12:18;;;;;;;;;;;;;;;;;;5168507;27;19927;-83
2022/01/13 18:14:45;;;;;;;;;;;;;;;;;;5116798;27;19924;-83
2022/01/13 18:17:12;;;;;;;;;;;;;;;;;;5112418;28;19935;-79
2022/01/13 18:19:39;;;;;;;;;;;;;;;;;;5053612;28;19936;-80
2022/01/13 18:22:06;;;;;;;;;;;;;;;;;;4944042;28;19939;-80
2022/01/13 18:24:33;;;;;;;;;;;;;;;;;;4783352;29;19930;-80
2022/01/13 18:26:59;;;;;;;;;;;;;;;;;;4646651;30;19934;-83
2022/01/13 18:33:00;;;;;;;;;;;;;;;;;;5162691;27;19926;-82
2022/01/13 18:35:27;;;;;;;;;;;;;;;;;;5117393;27;19931;-84
2022/01/13 18:37:53;;;;;;;;;;;;;;;;;;5112439;28;19932;-86
2022/01/13 18:40:20;;;;;;;;;;;;;;;;;;5059585;28;19925;-80
2022/01/13 18:42:52;;;;;;;;;;;;;;;;;;4946064;28;19928;-81
2022/01/13 18:45:22;;;;;;;;;;;;;;;;;;4718248;29;19931;-81
2022/01/13 18:47:58;;;;;;;;;;;;;;;;;;4605226;30;19937;-80
2022/01/13 18:55:29;;;;;;;;;;;;;;;;;;5173689;27;19925;-81
2022/01/13 18:57:56;;;;;;;;;;;;;;;;;;5154356;27;19923;-85
2022/01/13 19:00:23;;;;;;;;;;;;;;;;;;5129407;27;19939;-85
2022/01/13 19:02:50;;;;;;;;;;;;;;;;;;5049994;28;19925;-84
2022/01/13 19:05:16;;;;;;;;;;;;;;;;;;4998415;28;19933;-86
2022/01/13 19:07:45;;;;;;;;;;;;;;;;;;4936927;28;19936;-84
2022/01/13 19:10:12;;;;;;;;;;;;;;;;;;4701363;29;19933;-79
2022/01/13 19:17:54;;;;;;;;;;;;;;;;;;5173302;27;19930;-83
2022/01/13 19:20:21;;;;;;;;;;;;;;;;;;5118598;27;19931;-88
2022/01/13 19:22:49;;;;;;;;;;;;;;;;;;5132165;27;19931;-87
2022/01/13 19:25:15;;;;;;;;;;;;;;;;;;5065674;28;19924;-87
2022/01/13 19:27:42;;;;;;;;;;;;;;;;;;5017376;28;19934;-87
2022/01/13 19:30:09;;;;;;;;;;;;;;;;;;4901529;29;19928;-86
2022/01/13 19:32:38;;;;;;;;;;;;;;;;;;4723456;29;19939;-86
2022/01/13 19:37:56;;;;;;;;;;;;;;;;;;5173156;27;19925;-86
2022/01/13 19:40:23;;;;;;;;;;;;;;;;;;5136764;27;19923;-86
2022/01/13 19:42:50;;;;;;;;;;;;;;;;;;5111599;27;19939;-87
2022/01/13 19:45:17;;;;;;;;;;;;;;;;;;5079007;28;19928;-86
2022/01/13 19:47:43;;;;;;;;;;;;;;;;;;5005078;28;19927;-86
2022/01/13 19:50:10;;;;;;;;;;;;;;;;;;4794368;29;19931;-87
2022/01/13 19:52:41;;;;;;;;;;;;;;;;;;4624812;30;19947;-85
2022/01/13 20:00:14;;;;;;;;;;;;;;;;;;5174257;27;19925;-86
2022/01/13 20:02:41;;;;;;;;;;;;;;;;;;5131832;27;19930;-85
2022/01/13 20:05:08;;;;;;;;;;;;;;;;;;5092260;28;19932;-87
2022/01/13 20:07:35;;;;;;;;;;;;;;;;;;5074609;28;19924;-87
2022/01/13 20:10:01;;;;;;;;;;;;;;;;;;5054473;28;19933;-88
2022/01/13 20:12:31;;;;;;;;;;;;;;;;;;4863025;29;19929;-87
2022/01/13 20:15:00;;;;;;;;;;;;;;;;;;4558879;30;19942;-85
2022/01/13 20:22:32;;;;;;;;;;;;;;;;;;5184351;27;19929;-86
2022/01/13 20:24:59;;;;;;;;;;;;;;;;;;5134386;28;19930;-87
2022/01/13 20:27:26;;;;;;;;;;;;;;;;;;5133521;27;19924;-84
2022/01/13 20:29:54;;;;;;;;;;;;;;;;;;5125098;27;19924;-84
2022/01/13 20:32:21;;;;;;;;;;;;;;;;;;5048248;28;19927;-83
2022/01/13 20:34:48;;;;;;;;;;;;;;;;;;4867553;29;19930;-86
2022/01/13 20:37:15;;;;;;;;;;;;;;;;;;4661962;30;19941;-86
2022/01/13 20:42:21;;;;;;;;;;;;;;;;;;5169205;27;19926;-86
2022/01/13 20:44:48;;;;;;;;;;;;;;;;;;5117803;27;19923;-88
2022/01/13 20:47:15;;;;;;;;;;;;;;;;;;5113634;28;19931;-86
2022/01/13 20:49:42;;;;;;;;;;;;;;;;;;5086470;28;19924;-84
2022/01/13 20:52:09;;;;;;;;;;;;;;;;;;4995645;28;19927;-86
2022/01/13 20:54:36;;;;;;;;;;;;;;;;;;4790985;29;19938;-87
2022/01/13 20:57:03;;;;;;;;;;;;;;;;;;4651732;30;19934;-87
2022/01/13 21:03:34;;;;;;;;;;;;;;;;;;5158456;27;19931;-86
2022/01/13 21:06:02;;;;;;;;;;;;;;;;;;5117541;27;19923;-88
2022/01/13 21:08:31;;;;;;;;;;;;;;;;;;5113438;28;19931;-86
2022/01/13 21:11:02;;;;;;;;;;;;;;;;;;5076665;28;21282;-87
2022/01/13 21:13:29;;;;;;;;;;;;;;;;;;5030976;28;19935;-86
2022/01/13 21:15:55;;;;;;;;;;;;;;;;;;4841034;29;19938;-87